CheckWX is a tool to help pilots better visualize weather data.  It is not intended as a substitute for an official pre-flight weather briefing.

02:01:03 UTC

SCVM TAF
Viña del mar Airport
Viña Del Mar, Chile
TAF SCVM 222208Z 2300/2324 28010KT CAVOK TX21/2319Z TN14/2310Z BECMG 2301/2302 30004KT FEW010 BKN025 BECMG 2316/2318 28010KT FEW025 BECMG 2318/2320 CAVOK

Jan-23@
00:00 UTC

Jan-23 @ 00:00 UTC

Jan-23@
01:00 UTC

Jan-23 @ 01:00 UTC

TAF SCVM 222208Z 2300/2324 28010KT CAVOK TX21/2319Z TN14/2310Z

Expired

Wind
  • 280° at 10 KTS
Cloud Levels
  • No significant clouds

Jan-23@
01:00 UTC

Jan-23 @ 01:00 UTC

Jan-23@
16:00 UTC

Jan-23 @ 16:00 UTC

BECMG 2301/2302 30004KT FEW010 BKN025

Becoming

Becoming Conditions expected by Thu, Jan 23, 2020 @ 02:00 UTC

Wind
  • 300° at 4 KTS
Cloud Levels
  • Few at 1,000' AGL
  • Broken at 2,500' AGL

Jan-23@
16:00 UTC

Jan-23 @ 16:00 UTC

Jan-23@
18:00 UTC

Jan-23 @ 18:00 UTC

BECMG 2316/2318 28010KT FEW025

Becoming

Becoming Conditions expected by Thu, Jan 23, 2020 @ 18:00 UTC

Wind
  • 280° at 10 KTS
Cloud Levels
  • Few at 2,500' AGL

Jan-23@
18:00 UTC

Jan-23 @ 18:00 UTC

Jan-24@
00:00 UTC

Jan-24 @ 00:00 UTC

BECMG 2318/2320 CAVOK

Becoming

Becoming Conditions expected by Thu, Jan 23, 2020 @ 20:00 UTC

Wind
  • 280° at 10 KTS
Conditions
No significant weather
Cloud Levels
  • No significant clouds